createdAt,value
2019-04-30T00:04:06.430Z,99.90
2019-04-30T00:09:18.984Z,99.90
2019-04-30T00:14:25.035Z,99.90
2019-04-30T00:19:33.067Z,99.90
2019-04-30T00:24:46.765Z,99.90
2019-04-30T00:29:49.152Z,99.90
2019-04-30T00:34:57.677Z,99.90
2019-04-30T00:40:06.299Z,99.90
2019-04-30T00:45:15.856Z,99.90
2019-04-30T00:50:24.797Z,99.90
2019-04-30T00:55:31.729Z,99.90
2019-04-30T01:00:48.649Z,99.90
2019-04-30T01:05:55.767Z,99.90
2019-04-30T01:11:06.517Z,99.90
2019-04-30T01:16:11.787Z,99.90
2019-04-30T01:21:19.119Z,99.90
2019-04-30T01:26:27.728Z,99.90
2019-04-30T01:31:37.372Z,99.90
2019-04-30T01:36:50.719Z,99.90
2019-04-30T01:41:53.450Z,99.90
2019-04-30T01:47:00.741Z,99.90
2019-04-30T01:52:09.505Z,99.90
2019-04-30T01:57:41.888Z,99.90
2019-04-30T02:02:50.063Z,99.90
2019-04-30T02:07:58.547Z,99.90
2019-04-30T02:13:05.939Z,99.90
2019-04-30T02:18:14.330Z,99.90
2019-04-30T02:23:21.501Z,99.90
2019-04-30T02:28:29.656Z,99.90
2019-04-30T02:33:40.438Z,99.90
2019-04-30T02:38:50.696Z,99.90
2019-04-30T02:43:59.833Z,99.90
2019-04-30T02:49:10.650Z,99.90
2019-04-30T02:54:24.062Z,99.90
2019-04-30T02:59:30.295Z,99.90
2019-04-30T03:04:39.522Z,99.90
2019-04-30T03:09:46.437Z,99.90
2019-04-30T03:14:53.557Z,99.90
2019-04-30T03:20:20.258Z,99.90
2019-04-30T03:25:19.771Z,99.90
2019-04-30T03:30:31.532Z,99.90
2019-04-30T03:35:35.512Z,99.90
2019-04-30T03:40:42.689Z,99.90
2019-04-30T03:45:50.777Z,99.90
2019-04-30T03:51:00.891Z,99.90
2019-04-30T03:56:09.340Z,99.90
2019-04-30T04:01:22.214Z,99.90
2019-04-30T04:06:34.350Z,99.90
2019-04-30T04:11:42.684Z,99.90
2019-04-30T04:16:50.862Z,99.90
2019-04-30T04:22:00.117Z,99.90
2019-04-30T04:27:09.556Z,99.90
2019-04-30T04:32:15.646Z,99.90
2019-04-30T04:37:22.685Z,99.90
2019-04-30T04:42:33.099Z,99.90
2019-04-30T04:47:40.132Z,99.90
2019-04-30T04:52:49.599Z,99.90
2019-04-30T04:57:56.634Z,99.90
2019-04-30T05:03:19.998Z,99.90
2019-04-30T05:08:28.408Z,99.90
2019-04-30T05:13:35.568Z,99.90
2019-04-30T05:18:42.662Z,99.90
2019-04-30T05:23:49.766Z,99.90
2019-04-30T05:28:57.044Z,99.90
2019-04-30T05:34:06.288Z,99.90
2019-04-30T05:39:13.383Z,99.90
2019-04-30T05:44:20.427Z,99.90
2019-04-30T05:49:28.737Z,99.90
2019-04-30T05:54:35.900Z,99.90
2019-04-30T05:59:42.946Z,99.90
2019-04-30T06:04:50.852Z,99.90
2019-04-30T06:10:09.303Z,99.90
2019-04-30T06:15:29.003Z,99.50
2019-04-30T06:20:35.940Z,98.50
2019-04-30T06:25:56.378Z,97.70
2019-04-30T06:30:52.236Z,96.40
2019-04-30T06:36:00.621Z,98.30
2019-04-30T06:41:08.672Z,96.10
2019-04-30T06:46:15.817Z,93.50
2019-04-30T06:51:22.875Z,92.40
2019-04-30T06:56:29.934Z,90.90
2019-04-30T07:01:38.773Z,86.00
2019-04-30T07:06:46.050Z,86.40
2019-04-30T07:12:09.054Z,79.70
2019-04-30T07:17:24.624Z,75.10
2019-04-30T07:22:45.444Z,67.90
2019-04-30T07:27:50.286Z,63.30
2019-04-30T07:32:56.568Z,58.20
2019-04-30T07:38:05.000Z,55.00
2019-04-30T07:43:12.323Z,54.60
2019-04-30T07:48:25.883Z,51.60
2019-04-30T07:53:30.968Z,51.50
2019-04-30T07:58:39.106Z,50.80
2019-04-30T08:04:10.633Z,49.60
2019-04-30T08:09:19.634Z,47.30
2019-04-30T08:14:28.820Z,48.20
2019-04-30T08:19:36.212Z,48.00
2019-04-30T08:24:43.553Z,48.10
2019-04-30T08:29:50.768Z,44.50
2019-04-30T08:35:00.940Z,43.40
2019-04-30T08:40:08.715Z,43.50
2019-04-30T08:45:16.166Z,40.30
2019-04-30T08:50:23.557Z,39.70
2019-04-30T08:55:31.043Z,40.40
2019-04-30T09:00:38.558Z,40.20
2019-04-30T09:06:02.638Z,40.20
2019-04-30T09:11:21.805Z,39.90
2019-04-30T09:16:19.429Z,39.00
2019-04-30T09:21:30.047Z,39.60
2019-04-30T09:26:39.012Z,38.70
2019-04-30T09:31:45.724Z,38.60
2019-04-30T09:36:53.887Z,38.10
2019-04-30T09:42:00.987Z,38.40
2019-04-30T09:47:08.866Z,38.20
2019-04-30T09:52:16.134Z,38.10
2019-04-30T09:57:23.492Z,37.10
2019-04-30T10:02:30.897Z,36.30
2019-04-30T10:07:39.351Z,37.30
2019-04-30T10:12:49.305Z,37.80
2019-04-30T10:17:56.554Z,37.70
2019-04-30T10:23:03.663Z,37.00
2019-04-30T10:28:10.868Z,36.30
2019-04-30T10:33:19.623Z,35.70
2019-04-30T10:38:26.775Z,35.50
2019-04-30T10:43:33.844Z,36.20
2019-04-30T10:48:43.354Z,35.40
2019-04-30T10:53:51.198Z,34.00
2019-04-30T10:58:58.521Z,35.30
2019-04-30T11:04:07.963Z,33.30
2019-04-30T11:09:15.562Z,34.10
2019-04-30T11:14:22.687Z,33.30
2019-04-30T11:19:29.935Z,34.40
2019-04-30T11:24:53.389Z,35.00
2019-04-30T11:29:46.236Z,34.50
2019-04-30T11:34:53.506Z,33.40
2019-04-30T11:40:01.012Z,34.60
2019-04-30T11:45:09.325Z,34.10
2019-04-30T11:50:16.999Z,33.10
2019-04-30T11:55:24.291Z,32.80
2019-04-30T12:00:35.737Z,34.00
2019-04-30T12:05:44.353Z,32.50
2019-04-30T12:11:04.075Z,33.80
2019-04-30T12:16:11.199Z,32.60
2019-04-30T12:21:18.291Z,34.10
2019-04-30T12:26:25.377Z,33.40
2019-04-30T12:31:32.901Z,33.00
2019-04-30T12:36:40.182Z,31.10
2019-04-30T12:41:48.887Z,30.40
2019-04-30T12:46:56.096Z,29.20
2019-04-30T12:52:29.650Z,29.10
2019-04-30T12:57:41.149Z,27.60
2019-04-30T13:02:49.642Z,29.10
2019-04-30T13:07:59.270Z,29.20
2019-04-30T13:13:06.688Z,30.30
2019-04-30T13:18:14.074Z,29.40
2019-04-30T13:23:21.257Z,30.00
2019-04-30T13:28:29.900Z,28.40
2019-04-30T13:33:46.261Z,29.30
2019-04-30T13:38:59.469Z,29.20
2019-04-30T13:44:21.841Z,28.40
2019-04-30T13:49:30.341Z,28.50
2019-04-30T13:54:38.446Z,27.90
2019-04-30T13:59:45.661Z,27.70
2019-04-30T14:05:07.187Z,28.20
2019-04-30T14:10:14.767Z,29.50
2019-04-30T14:15:22.481Z,28.90
2019-04-30T14:20:29.698Z,27.80
2019-04-30T14:25:37.149Z,27.60
2019-04-30T14:30:44.499Z,26.90
2019-04-30T14:35:51.689Z,27.20
2019-04-30T14:41:00.665Z,26.70
2019-04-30T14:46:33.194Z,25.90
2019-04-30T14:51:41.023Z,25.90
2019-04-30T14:57:11.365Z,25.80
2019-04-30T15:02:30.142Z,25.70
2019-04-30T15:07:37.263Z,25.40
2019-04-30T15:12:44.495Z,25.50
2019-04-30T15:17:51.617Z,25.50
2019-04-30T15:23:27.091Z,24.20
2019-04-30T15:28:34.569Z,24.70
2019-04-30T15:34:01.782Z,25.20
2019-04-30T15:39:12.581Z,24.90
2019-04-30T15:44:19.683Z,25.10
2019-04-30T15:49:26.917Z,25.00
2019-04-30T15:54:34.127Z,25.40
2019-04-30T15:59:42.405Z,25.00
2019-04-30T16:05:01.690Z,25.40
2019-04-30T16:10:29.825Z,25.70
2019-04-30T16:15:38.544Z,25.90
2019-04-30T16:20:45.734Z,25.60
2019-04-30T16:25:53.023Z,25.70
2019-04-30T16:31:00.890Z,25.90
2019-04-30T16:36:09.031Z,26.30
2019-04-30T16:41:30.753Z,27.20
2019-04-30T16:46:26.200Z,26.80
2019-04-30T16:51:33.298Z,27.20
2019-04-30T16:56:40.463Z,28.10
2019-04-30T17:01:57.492Z,28.40
2019-04-30T17:07:03.295Z,29.00
2019-04-30T17:12:24.834Z,29.60
2019-04-30T17:17:31.850Z,32.00
2019-04-30T17:22:39.520Z,35.00
2019-04-30T17:27:48.019Z,37.20
2019-04-30T17:32:55.173Z,38.60
2019-04-30T17:38:02.237Z,39.60
2019-04-30T17:43:09.411Z,40.20
2019-04-30T17:48:16.530Z,40.70
2019-04-30T17:53:23.839Z,41.00
2019-04-30T17:58:32.209Z,41.70
2019-04-30T18:03:39.331Z,41.60
2019-04-30T18:08:48.121Z,42.00
2019-04-30T18:13:55.430Z,42.70
2019-04-30T18:19:25.731Z,43.50
2019-04-30T18:25:04.319Z,43.40
2019-04-30T18:30:15.694Z,44.50
2019-04-30T18:35:22.871Z,45.60
2019-04-30T18:40:29.945Z,46.90
2019-04-30T18:45:37.070Z,47.20
2019-04-30T18:50:44.277Z,48.40
2019-04-30T18:55:51.805Z,49.40
2019-04-30T19:00:59.315Z,51.10
2019-04-30T19:06:22.511Z,53.30
2019-04-30T19:11:29.036Z,54.60
2019-04-30T19:17:01.211Z,56.10
2019-04-30T19:22:09.161Z,57.10
2019-04-30T19:27:16.245Z,58.60
2019-04-30T19:32:23.921Z,61.60
2019-04-30T19:37:31.009Z,65.40
2019-04-30T19:42:39.558Z,69.60
2019-04-30T19:47:48.850Z,75.90
2019-04-30T19:52:58.623Z,82.60
2019-04-30T19:58:05.935Z,90.10
2019-04-30T20:03:13.005Z,92.30
2019-04-30T20:08:20.162Z,93.60
2019-04-30T20:13:33.770Z,94.20
2019-04-30T20:18:36.231Z,94.80
2019-04-30T20:23:43.448Z,94.90
2019-04-30T20:28:50.658Z,95.60
2019-04-30T20:33:59.103Z,96.20
2019-04-30T20:39:16.095Z,96.10
2019-04-30T20:44:23.681Z,96.20
2019-04-30T20:49:30.874Z,96.70
2019-04-30T20:54:39.004Z,97.00
2019-04-30T20:59:46.182Z,97.60
2019-04-30T21:04:53.249Z,97.30
2019-04-30T21:10:00.837Z,97.90
2019-04-30T21:15:09.663Z,97.60
2019-04-30T21:20:19.431Z,97.70
2019-04-30T21:25:29.131Z,98.10
2019-04-30T21:30:37.339Z,98.00
2019-04-30T21:35:50.698Z,98.80
2019-04-30T21:41:01.194Z,99.10
2019-04-30T21:46:09.390Z,99.90
2019-04-30T21:51:16.416Z,99.90
2019-04-30T21:56:23.567Z,99.90
2019-04-30T22:01:31.109Z,99.90
2019-04-30T22:06:39.481Z,99.90
2019-04-30T22:11:46.677Z,99.90
2019-04-30T22:16:53.741Z,99.90
2019-04-30T22:22:00.825Z,99.90
2019-04-30T22:27:07.899Z,99.90
2019-04-30T22:32:15.649Z,99.90
2019-04-30T22:37:22.754Z,99.90
2019-04-30T22:42:32.488Z,99.90
2019-04-30T22:47:39.876Z,99.90
2019-04-30T22:52:47.035Z,99.90
2019-04-30T22:57:54.124Z,99.90
2019-04-30T23:03:07.179Z,99.90
2019-04-30T23:08:14.240Z,99.90
2019-04-30T23:13:21.344Z,99.90
2019-04-30T23:18:28.436Z,99.90
2019-04-30T23:23:36.495Z,99.90
2019-04-30T23:28:43.628Z,99.90
2019-04-30T23:33:50.709Z,99.90
2019-04-30T23:38:57.822Z,99.90
2019-04-30T23:44:05.959Z,99.90
2019-04-30T23:49:13.160Z,99.90
2019-04-30T23:54:20.254Z,99.90
2019-04-30T23:59:27.664Z,99.90
